Time;durP1;ratioP1;P1;durP2;ratioP2;P2;SDS_P1;SDS_P2;PMS_P1;PMS_P2;Temp;Humidity;BMP_temperature;BMP_pressure;BME280_temperature;BME280_humidity;BME280_pressure;Samples;Min_cycle;Max_cycle;Signal;HPM_P1;HPM_P2
2022/06/15 00:00:44;;;;;;;4.70;3.85;;;;;;;24.89;37.74;102081.25;5089771;28;20020;-71
2022/06/15 00:03:14;;;;;;;9.98;4.18;;;;;;;25.09;37.49;102075.81;5085959;28;20028;-71
2022/06/15 00:05:43;;;;;;;8.45;3.65;;;;;;;23.67;39.57;102083.50;5095293;27;20047;-71
2022/06/15 00:08:10;;;;;;;9.57;3.92;;;;;;;25.35;36.87;102071.81;5086380;28;20817;-72
2022/06/15 00:10:37;;;;;;;6.40;4.07;;;;;;;25.54;36.79;102072.56;5084847;28;20024;-72
2022/06/15 00:13:02;;;;;;;7.68;3.67;;;;;;;24.94;37.72;102069.47;5089772;28;20115;-71
2022/06/15 00:15:28;;;;;;;9.60;4.70;;;;;;;24.61;38.32;102063.06;5088758;28;20555;-71
2022/06/15 00:17:53;;;;;;;6.65;3.58;;;;;;;25.07;36.88;102062.50;5089597;28;20128;-71
2022/06/15 00:20:19;;;;;;;6.03;4.00;;;;;;;25.53;36.58;102064.63;5090165;28;20039;-70
2022/06/15 00:22:44;;;;;;;7.30;3.58;;;;;;;24.67;38.53;102065.41;5088494;28;20843;-71
2022/06/15 00:25:10;;;;;;;6.28;4.43;;;;;;;24.51;38.52;102064.41;5089349;28;20112;-71
2022/06/15 00:27:36;;;;;;;9.63;4.43;;;;;;;24.37;39.08;102065.09;5089937;28;20028;-71
2022/06/15 00:30:03;;;;;;;5.13;3.50;;;;;;;25.03;37.38;102060.94;5089213;28;20046;-71
2022/06/15 00:32:29;;;;;;;5.55;3.72;;;;;;;25.04;37.35;102060.84;5088240;28;20023;-71
2022/06/15 00:34:54;;;;;;;7.25;3.60;;;;;;;24.99;37.69;102059.38;5088895;28;20127;-71
2022/06/15 00:37:19;;;;;;;8.95;4.00;;;;;;;24.80;38.05;102060.34;5090488;28;20067;-71
2022/06/15 00:39:45;;;;;;;9.70;4.20;;;;;;;24.89;37.54;102057.19;5088531;28;20028;-71
2022/06/15 00:42:15;;;;;;;5.68;4.13;;;;;;;24.46;38.44;102062.00;5089572;28;20058;-71
2022/06/15 00:44:42;;;;;;;8.88;4.32;;;;;;;24.01;39.38;102071.28;5087056;28;20027;-71
2022/06/15 00:47:30;;;;;;;10.02;4.20;;;;;;;24.37;38.75;102067.78;5090788;28;20032;-71
2022/06/15 00:50:03;;;;;;;5.97;3.88;;;;;;;24.02;39.78;102065.00;5089574;28;20077;-71
2022/06/15 00:52:49;;;;;;;10.48;4.03;;;;;;;24.92;38.33;102060.63;5088371;28;20285;-70
2022/06/15 00:55:28;;;;;;;5.95;3.92;;;;;;;24.82;38.44;102058.44;5083342;28;20027;-71
2022/06/15 00:57:54;;;;;;;9.15;4.28;;;;;;;24.57;38.85;102058.78;5087835;28;20434;-71
2022/06/15 01:00:21;;;;;;;9.32;4.35;;;;;;;23.88;39.93;102060.34;5089416;28;20390;-71
2022/06/15 01:02:47;;;;;;;12.90;4.30;;;;;;;24.35;39.41;102053.66;5090427;28;20016;-71
2022/06/15 01:05:22;;;;;;;13.05;3.92;;;;;;;24.56;39.26;102047.25;5088220;28;20479;-71
2022/06/15 01:08:14;;;;;;;7.95;4.10;;;;;;;24.37;39.69;102046.41;5088456;28;20023;-71
2022/06/15 01:11:19;;;;;;;14.32;5.35;;;;;;;24.46;39.26;102035.28;5087175;28;20036;-71
2022/06/15 01:14:02;;;;;;;10.55;4.13;;;;;;;24.34;39.59;102036.72;5078570;28;20499;-71
2022/06/15 01:16:42;;;;;;;7.65;4.45;;;;;;;24.36;39.41;102042.03;5091048;28;20028;-71
2022/06/15 01:19:31;;;;;;;8.77;4.40;;;;;;;24.36;39.39;102039.34;5091841;28;20038;-71
2022/06/15 01:22:25;;;;;;;10.00;4.40;;;;;;;24.33;39.24;102039.47;5087921;28;20089;-71
2022/06/15 01:25:18;;;;;;;8.50;4.20;;;;;;;24.32;39.55;102045.78;5091949;28;20095;-71
2022/06/15 01:28:10;;;;;;;6.00;3.60;;;;;;;24.15;39.57;102047.47;5092241;28;20028;-71
2022/06/15 01:30:58;;;;;;;9.70;4.20;;;;;;;24.50;39.07;102031.50;5092200;28;20476;-71
2022/06/15 01:33:35;;;;;;;8.48;4.93;;;;;;;23.92;40.32;102053.03;5092627;28;20157;-71
2022/06/15 01:36:31;;;;;;;8.85;4.20;;;;;;;24.40;39.60;102040.94;5092141;28;20051;-71
2022/06/15 01:39:00;;;;;;;7.55;4.28;;;;;;;24.79;38.58;102039.88;5091577;28;20048;-71
2022/06/15 01:41:38;;;;;;;12.25;4.90;;;;;;;24.20;39.95;102042.75;5089290;28;20039;-71
2022/06/15 01:44:19;;;;;;;6.55;4.38;;;;;;;24.67;38.82;102037.84;5091434;28;20110;-71
2022/06/15 01:46:46;;;;;;;12.13;4.80;;;;;;;24.44;39.53;102031.81;5091778;28;20035;-71
2022/06/15 01:49:21;;;;;;;6.15;4.50;;;;;;;23.88;40.68;102045.16;5091835;28;20107;-71
2022/06/15 01:51:48;;;;;;;7.95;4.25;;;;;;;24.30;39.62;102023.59;5090315;28;20028;-71
2022/06/15 01:54:30;;;;;;;10.68;4.47;;;;;;;24.43;39.18;102027.41;5089897;28;20388;-71
2022/06/15 01:56:57;;;;;;;12.35;5.28;;;;;;;24.64;38.53;102025.50;5092373;28;20030;-72
2022/06/15 01:59:42;;;;;;;8.50;4.22;;;;;;;24.79;38.68;102013.16;5093368;28;20042;-71
2022/06/15 02:02:26;;;;;;;8.20;4.55;;;;;;;24.58;38.82;102016.88;5089832;28;20043;-71
2022/06/15 02:05:08;;;;;;;10.50;4.32;;;;;;;24.77;38.52;102012.38;5092173;28;20020;-71
2022/06/15 02:07:59;;;;;;;7.40;3.95;;;;;;;23.74;40.39;102023.59;5091010;28;20430;-71
2022/06/15 02:10:31;;;;;;;6.32;3.63;;;;;;;24.06;40.07;102010.53;5091538;28;20037;-71
2022/06/15 02:13:06;;;;;;;8.35;4.03;;;;;;;23.55;40.64;102011.06;5091184;28;20032;-71
2022/06/15 02:15:33;;;;;;;6.35;4.05;;;;;;;24.53;38.84;102012.63;5090753;28;20057;-71
2022/06/15 02:18:04;;;;;;;10.25;4.70;;;;;;;24.20;39.27;102008.03;5092076;28;20039;-72
2022/06/15 02:20:36;;;;;;;6.40;4.00;;;;;;;24.16;39.70;102006.44;5091916;28;20034;-71
2022/06/15 02:23:04;;;;;;;10.68;4.20;;;;;;;24.16;38.89;102013.59;5090261;28;20043;-72
2022/06/15 02:25:35;;;;;;;7.82;3.42;;;;;;;24.02;39.69;102014.28;5093284;28;20036;-71
2022/06/15 02:28:03;;;;;;;10.55;4.13;;;;;;;24.32;38.62;102011.91;5089863;28;20038;-71
2022/06/15 02:30:30;;;;;;;7.18;4.13;;;;;;;24.26;39.25;102004.19;5107059;28;20068;-71
2022/06/15 02:32:55;;;;;;;6.57;4.15;;;;;;;23.72;40.78;102012.09;5091707;28;20054;-71
2022/06/15 02:35:22;;;;;;;6.45;4.18;;;;;;;24.21;39.28;102004.41;5090878;28;20548;-71
2022/06/15 02:37:49;;;;;;;5.97;3.45;;;;;;;24.02;39.71;102004.47;5091148;28;20082;-71
2022/06/15 02:40:18;;;;;;;5.95;4.10;;;;;;;24.13;39.75;102001.25;5092440;28;20028;-72
2022/06/15 02:42:47;;;;;;;6.68;4.18;;;;;;;24.13;39.60;102000.41;5090675;28;20432;-72
2022/06/15 02:45:39;;;;;;;6.32;4.78;;;;;;;24.14;39.31;102000.34;5092003;28;20032;-71
2022/06/15 02:48:08;;;;;;;5.95;3.88;;;;;;;24.21;39.12;102004.41;5070760;28;20490;-71
2022/06/15 02:50:45;;;;;;;10.43;4.45;;;;;;;23.60;40.00;102007.34;5070508;28;20522;-71
2022/06/15 02:53:15;;;;;;;6.18;4.03;;;;;;;24.08;39.65;102003.28;5085840;28;20028;-71
2022/06/15 02:55:44;;;;;;;6.95;3.83;;;;;;;24.35;39.17;101989.53;5089367;28;20028;-71
2022/06/15 02:58:29;;;;;;;9.52;4.35;;;;;;;24.36;38.94;102001.94;5091451;28;20101;-71
2022/06/15 03:00:56;;;;;;;7.63;4.55;;;;;;;24.20;39.35;101999.16;5091162;28;20032;-71
2022/06/15 03:03:23;;;;;;;9.23;3.97;;;;;;;24.11;39.43;101997.81;5092642;28;20124;-71
2022/06/15 03:05:52;;;;;;;7.25;4.53;;;;;;;23.99;39.85;102003.75;5090408;28;20480;-72
2022/06/15 03:08:19;;;;;;;8.65;4.55;;;;;;;23.73;39.94;102003.16;5103451;27;20499;-71
2022/06/15 03:10:44;;;;;;;6.88;4.13;;;;;;;23.88;39.59;102002.44;5090857;28;20122;-72
2022/06/15 03:13:10;;;;;;;9.50;4.55;;;;;;;23.88;39.94;102002.44;5090407;28;20461;-71
2022/06/15 03:15:35;;;;;;;7.25;4.35;;;;;;;23.76;39.75;102003.00;5089855;28;20024;-71
2022/06/15 03:18:01;;;;;;;5.68;4.10;;;;;;;23.83;39.63;101998.25;5090145;28;20114;-72
2022/06/15 03:20:27;;;;;;;6.78;4.10;;;;;;;22.98;40.64;101999.41;5090384;28;20028;-71
2022/06/15 03:22:52;;;;;;;6.88;3.95;;;;;;;23.33;40.57;101994.34;5088521;28;20035;-72
2022/06/15 03:25:18;;;;;;;8.50;4.45;;;;;;;22.50;41.46;101993.44;5089893;28;20043;-71
2022/06/15 03:27:44;;;;;;;8.77;4.05;;;;;;;23.16;40.33;101995.97;5089674;28;20111;-71
2022/06/15 03:30:11;;;;;;;9.05;4.53;;;;;;;23.26;40.24;101990.19;5090928;28;20039;-71
2022/06/15 03:32:36;;;;;;;7.30;3.60;;;;;;;22.97;41.15;101997.66;5089058;28;20016;-72
2022/06/15 03:35:02;;;;;;;7.78;4.38;;;;;;;23.60;39.57;101996.66;5090443;28;20479;-72
2022/06/15 03:37:28;;;;;;;7.32;3.90;;;;;;;23.33;40.33;101989.00;5088957;28;20140;-71
2022/06/15 03:39:54;;;;;;;6.38;4.10;;;;;;;22.83;41.48;102001.81;5088417;28;20178;-71
2022/06/15 03:42:23;;;;;;;9.35;3.85;;;;;;;22.76;41.77;102000.34;5088703;28;20122;-71
2022/06/15 03:44:49;;;;;;;11.25;4.43;;;;;;;22.30;42.25;102002.25;5091592;28;20076;-71
2022/06/15 03:47:17;;;;;;;10.50;4.25;;;;;;;23.43;39.95;102006.31;5088995;28;20048;-71
2022/06/15 03:49:53;;;;;;;10.15;3.92;;;;;;;22.78;41.30;102009.16;5090318;28;20548;-72
2022/06/15 03:52:21;;;;;;;8.75;4.40;;;;;;;23.29;40.34;102008.75;5088923;28;20502;-72
2022/06/15 03:54:46;;;;;;;8.10;3.47;;;;;;;23.40;39.99;102011.78;5088768;28;20084;-72
2022/06/15 03:57:13;;;;;;;8.90;4.28;;;;;;;23.10;40.45;102014.84;5090029;28;20024;-71
2022/06/15 03:59:39;;;;;;;5.00;3.40;;;;;;;23.12;40.46;102006.78;5091596;28;20028;-71
2022/06/15 04:02:04;;;;;;;8.95;3.78;;;;;;;23.41;39.86;102005.53;5089973;28;20028;-72
2022/06/15 04:04:30;;;;;;;6.72;4.07;;;;;;;22.78;40.75;102003.81;5089253;28;20024;-72
2022/06/15 04:06:56;;;;;;;9.15;3.90;;;;;;;23.51;39.58;102014.81;5088288;28;20088;-72
2022/06/15 04:09:22;;;;;;;8.13;3.72;;;;;;;23.36;39.23;102004.88;5088445;28;20084;-72
2022/06/15 04:11:59;;;;;;;9.55;3.58;;;;;;;23.77;39.03;102010.09;5089822;28;20148;-72
2022/06/15 04:14:32;;;;;;;7.47;3.45;;;;;;;23.54;39.07;102006.66;5090145;28;20064;-72
2022/06/15 04:16:58;;;;;;;4.22;3.35;;;;;;;23.52;39.25;102005.88;5088195;28;20443;-72
2022/06/15 04:19:26;;;;;;;9.23;3.97;;;;;;;23.35;39.59;102003.97;5089187;28;20085;-72
2022/06/15 04:21:52;;;;;;;8.35;3.58;;;;;;;23.31;39.63;102006.88;5088857;28;20449;-72
2022/06/15 04:24:19;;;;;;;6.88;3.20;;;;;;;23.26;40.16;102009.75;5089290;28;20042;-71
2022/06/15 04:26:47;;;;;;;5.60;3.38;;;;;;;23.32;40.07;102008.59;5088188;28;20112;-72
2022/06/15 04:29:13;;;;;;;8.07;3.25;;;;;;;23.69;38.95;102006.91;5089354;28;20392;-71
2022/06/15 04:31:39;;;;;;;7.60;4.10;;;;;;;23.61;39.20;102009.06;5090738;28;20067;-72
2022/06/15 04:34:09;;;;;;;4.40;3.10;;;;;;;23.63;38.86;102001.84;5089727;28;20498;-72
2022/06/15 04:36:37;;;;;;;6.35;4.35;;;;;;;23.53;39.20;102018.31;5087989;28;20028;-71
2022/06/15 04:39:04;;;;;;;6.50;3.75;;;;;;;24.05;38.13;102011.44;5090861;28;20044;-72
2022/06/15 04:41:29;;;;;;;7.00;3.70;;;;;;;24.20;37.66;102008.03;5087391;28;20036;-72
2022/06/15 04:43:55;;;;;;;9.15;3.75;;;;;;;23.97;38.89;102016.31;5089335;28;20035;-72
2022/06/15 04:46:20;;;;;;;7.55;3.35;;;;;;;24.85;36.99;102015.53;5090121;28;20024;-71
2022/06/15 04:48:46;;;;;;;8.13;3.33;;;;;;;26.12;35.19;102007.81;5088834;28;20562;-71
2022/06/15 04:51:20;;;;;;;8.30;3.25;;;;;;;26.99;32.72;102009.00;5087913;28;20512;-71
2022/06/15 04:53:46;;;;;;;6.57;2.75;;;;;;;27.99;31.09;102004.53;5089911;28;20039;-72
2022/06/15 04:56:12;;;;;;;5.43;2.38;;;;;;;27.73;31.03;102009.78;5094185;28;20036;-72
2022/06/15 04:58:39;;;;;;;5.85;2.83;;;;;;;28.88;29.04;102003.94;5092965;28;20073;-72
2022/06/15 05:01:06;;;;;;;7.35;2.53;;;;;;;28.91;29.26;102006.41;5092837;28;20043;-71
2022/06/15 05:03:31;;;;;;;4.93;2.55;;;;;;;30.13;27.70;102007.63;5092750;28;20024;-71
2022/06/15 05:05:57;;;;;;;7.10;2.97;;;;;;;29.47;28.36;102001.66;5091841;28;20073;-72
2022/06/15 05:08:23;;;;;;;4.82;2.55;;;;;;;31.11;26.08;102006.47;5094751;28;20028;-72
2022/06/15 05:10:49;;;;;;;4.25;2.65;;;;;;;31.86;25.56;102015.78;5092317;28;20031;-74
2022/06/15 05:13:14;;;;;;;4.72;2.42;;;;;;;31.30;26.20;102003.16;5091916;28;20446;-72
2022/06/15 05:15:39;;;;;;;5.07;2.42;;;;;;;32.21;24.76;102003.03;5092818;28;20020;-72
2022/06/15 05:18:07;;;;;;;6.20;2.38;;;;;;;32.74;23.83;102000.31;5091784;28;20059;-72
2022/06/15 05:20:36;;;;;;;6.45;2.60;;;;;;;31.65;24.85;102002.16;5092971;28;20028;-73
2022/06/15 05:23:02;;;;;;;6.60;2.60;;;;;;;30.68;26.59;102001.72;5092288;28;20387;-72
2022/06/15 05:25:28;;;;;;;5.70;3.35;;;;;;;30.40;26.99;101998.41;5094099;28;20023;-73
2022/06/15 05:27:53;;;;;;;5.15;2.40;;;;;;;28.72;29.22;102000.59;5088959;28;20035;-72
2022/06/15 05:30:19;;;;;;;6.65;2.83;;;;;;;28.25;29.55;102003.69;5093947;28;20024;-72
2022/06/15 05:32:44;;;;;;;7.50;2.83;;;;;;;27.78;30.47;102007.66;5093227;28;20047;-73
2022/06/15 05:35:10;;;;;;;7.18;2.80;;;;;;;27.51;30.89;102013.81;5092377;28;20028;-72
2022/06/15 05:37:36;;;;;;;5.38;3.10;;;;;;;25.69;33.65;102016.44;5092221;28;20464;-72
2022/06/15 05:40:01;;;;;;;4.82;2.72;;;;;;;25.45;34.64;102011.50;5091005;28;20061;-72
2022/06/15 05:42:28;;;;;;;5.97;2.67;;;;;;;25.77;34.26;102008.84;5092259;28;20071;-72
2022/06/15 05:44:55;;;;;;;4.13;2.88;;;;;;;24.90;35.55;102013.44;5096691;28;20111;-72
2022/06/15 05:47:20;;;;;;;9.25;3.55;;;;;;;26.03;34.14;102015.44;5080789;28;20024;-72
2022/06/15 05:49:46;;;;;;;7.30;3.08;;;;;;;25.48;35.31;102011.31;5093236;28;20026;-73
2022/06/15 05:52:12;;;;;;;5.45;3.53;;;;;;;25.74;34.83;102014.38;5092048;28;20437;-72
2022/06/15 05:54:37;;;;;;;5.97;3.25;;;;;;;25.76;35.04;102023.19;5090200;28;20111;-72
2022/06/15 05:57:18;;;;;;;5.93;3.35;;;;;;;25.46;35.82;102021.25;5091431;28;20103;-72
2022/06/15 05:59:43;;;;;;;7.10;3.05;;;;;;;25.68;35.76;102022.75;5092933;28;20077;-73
2022/06/15 06:02:10;;;;;;;7.47;3.13;;;;;;;26.77;33.84;102018.34;5090918;28;20445;-74
2022/06/15 06:04:36;;;;;;;7.85;3.83;;;;;;;26.87;34.01;102015.97;5093622;28;20030;-73
2022/06/15 06:07:01;;;;;;;5.40;3.08;;;;;;;26.80;33.85;102020.81;5091187;28;20555;-73
2022/06/15 06:09:28;;;;;;;10.45;4.25;;;;;;;26.33;33.82;102027.16;5094770;27;20514;-73
2022/06/15 06:11:54;;;;;;;6.80;3.83;;;;;;;27.85;32.66;102017.03;5087235;28;20028;-73
2022/06/15 06:14:19;;;;;;;5.78;3.00;;;;;;;29.28;30.88;102017.31;5090489;28;20028;-73
2022/06/15 06:16:45;;;;;;;10.05;3.97;;;;;;;30.76;27.80;102015.47;5086461;28;20392;-73
2022/06/15 06:19:11;;;;;;;5.30;2.75;;;;;;;31.41;26.21;102015.81;5091382;28;20031;-73
2022/06/15 06:21:36;;;;;;;4.80;2.40;;;;;;;32.94;24.58;102012.09;5090385;28;20020;-73
2022/06/15 06:24:01;;;;;;;7.03;2.53;;;;;;;35.17;22.95;102008.06;5091893;28;20099;-73
2022/06/15 06:26:31;;;;;;;7.57;2.53;;;;;;;35.69;21.84;102020.28;5091426;28;20388;-73
2022/06/15 06:28:56;;;;;;;4.97;2.42;;;;;;;35.60;22.04;102022.91;5090489;28;20369;-73
2022/06/15 06:31:22;;;;;;;4.18;2.35;;;;;;;35.90;22.40;102018.19;5102565;27;20020;-74
2022/06/15 06:33:49;;;;;;;5.28;2.63;;;;;;;35.64;21.15;102018.88;5108796;28;20059;-74
2022/06/15 06:36:21;;;;;;;6.07;2.50;;;;;;;35.66;20.11;102025.00;5089815;28;20067;-73
2022/06/15 06:38:46;;;;;;;5.63;2.40;;;;;;;35.87;21.28;102020.34;5089780;28;20047;-73
2022/06/15 06:41:16;;;;;;;3.38;2.28;;;;;;;36.66;20.28;102022.25;5108637;28;20047;-73
2022/06/15 06:43:41;;;;;;;6.30;2.42;;;;;;;37.94;18.67;102020.66;5090984;28;20038;-73
2022/06/15 06:46:07;;;;;;;4.32;2.15;;;;;;;37.12;19.57;102026.63;5090915;28;20024;-74
2022/06/15 06:48:32;;;;;;;4.75;2.15;;;;;;;37.97;18.98;102023.91;5091641;28;20027;-73
2022/06/15 06:50:57;;;;;;;4.35;2.13;;;;;;;38.22;19.33;102029.38;5090200;28;20031;-74
2022/06/15 06:53:23;;;;;;;4.35;2.25;;;;;;;38.46;18.53;102035.91;5109972;27;20028;-74
2022/06/15 06:55:48;;;;;;;4.88;2.00;;;;;;;38.43;20.14;102036.22;5091349;28;20032;-73
2022/06/15 06:58:13;;;;;;;8.98;1.95;;;;;;;38.63;19.37;102037.56;5087885;28;20106;-74
2022/06/15 07:00:39;;;;;;;4.00;2.13;;;;;;;37.21;18.63;102042.00;5092984;28;20437;-73
2022/06/15 07:03:05;;;;;;;4.15;2.30;;;;;;;36.66;20.08;102044.03;5091431;28;20042;-74
2022/06/15 07:05:37;;;;;;;3.97;1.85;;;;;;;37.42;19.78;102043.50;5091696;28;20032;-74
2022/06/15 07:08:04;;;;;;;3.35;2.28;;;;;;;37.55;19.12;102038.44;5086142;28;20020;-73
2022/06/15 07:10:30;;;;;;;5.55;2.20;;;;;;;39.93;17.79;102044.66;5090829;28;20027;-73
2022/06/15 07:12:55;;;;;;;3.97;1.90;;;;;;;39.60;18.94;102039.41;5089894;28;20084;-73
2022/06/15 07:15:21;;;;;;;4.63;2.20;;;;;;;39.57;17.25;102049.81;5086517;28;20080;-72
2022/06/15 07:17:47;;;;;;;3.78;1.90;;;;;;;40.32;16.44;102051.91;5088992;28;20162;-74
2022/06/15 07:20:12;;;;;;;6.13;2.30;;;;;;;39.15;18.24;102057.34;5091076;28;20031;-73
2022/06/15 07:22:39;;;;;;;6.53;2.08;;;;;;;39.76;18.46;102048.53;5089820;28;20059;-73
2022/06/15 07:25:06;;;;;;;4.88;2.13;;;;;;;39.36;17.49;102054.88;5088080;28;20475;-73
2022/06/15 07:27:37;;;;;;;3.78;2.03;;;;;;;39.61;17.61;102046.59;5091027;28;20020;-74
2022/06/15 07:30:09;;;;;;;4.50;2.00;;;;;;;39.73;17.61;102059.84;5088339;28;20051;-73
2022/06/15 07:32:34;;;;;;;;;;;;;;;39.14;17.05;102055.59;5101885;27;20039;-72
2022/06/15 07:34:59;;;;;;;3.40;1.80;;;;;;;37.29;17.99;102049.38;5097513;28;19916;-73
2022/06/15 07:37:25;;;;;;;4.80;2.05;;;;;;;39.25;17.93;102052.50;5092201;28;20131;-73
2022/06/15 07:39:50;;;;;;;4.88;1.80;;;;;;;37.71;18.32;102053.16;5089753;28;20411;-73
2022/06/15 07:42:16;;;;;;;5.43;1.80;;;;;;;38.64;17.60;102052.09;5086794;28;20287;-72
2022/06/15 07:44:41;;;;;;;3.85;2.13;;;;;;;38.43;17.91;102063.53;5089853;28;20379;-72
2022/06/15 07:49:59;;;;;;;4.85;2.05;;;;;;;40.24;16.93;102057.44;5017514;28;20143;-72
2022/06/15 07:52:29;;;;;;;4.80;1.75;;;;;;;41.86;14.88;102050.56;5088767;28;20020;-73
2022/06/15 07:54:55;;;;;;;5.63;2.53;;;;;;;41.39;15.40;102049.16;5082839;28;20123;-72
2022/06/15 07:57:20;;;;;;;5.53;1.65;;;;;;;41.53;14.37;102051.03;5087926;28;20115;-73
2022/06/15 07:59:46;;;;;;;2.88;1.50;;;;;;;42.70;13.65;102047.16;5087644;28;20392;-72
2022/06/15 08:02:11;;;;;;;4.95;1.75;;;;;;;41.41;15.30;102049.81;5091421;28;20032;-72
2022/06/15 08:04:36;;;;;;;4.65;1.98;;;;;;;41.39;15.34;102052.75;5088355;28;20060;-72
2022/06/15 08:07:04;;;;;;;8.68;1.80;;;;;;;41.74;14.69;102041.97;5085309;28;20020;-71
2022/06/15 08:09:29;;;;;;;6.72;1.73;;;;;;;41.33;14.74;102048.84;5086596;28;20039;-72
2022/06/15 08:12:14;;;;;;;4.95;1.63;;;;;;;41.06;14.46;102049.53;5101055;27;20043;-72
2022/06/15 08:14:52;;;;;;;9.18;2.58;;;;;;;39.67;15.14;102056.78;5091480;28;20032;-71
2022/06/15 08:17:21;;;;;;;5.82;1.42;;;;;;;39.58;15.30;102046.88;5086255;28;20369;-72
2022/06/15 08:19:51;;;;;;;5.25;1.48;;;;;;;41.60;14.97;102043.72;5069888;28;20035;-73
2022/06/15 08:22:17;;;;;;;8.82;1.65;;;;;;;40.56;16.01;102055.53;5074730;28;20388;-74
2022/06/15 08:24:44;;;;;;;4.25;1.73;;;;;;;40.50;15.66;102053.50;5082347;28;20023;-73
2022/06/15 08:27:12;;;;;;;5.15;1.52;;;;;;;41.07;15.08;102049.34;5086880;28;20047;-75
2022/06/15 08:29:38;;;;;;;5.28;1.50;;;;;;;42.18;13.61;102048.34;5090281;28;20028;-75
2022/06/15 08:32:04;;;;;;;3.50;1.42;;;;;;;41.33;13.95;102048.00;5089960;28;20028;-75
2022/06/15 08:34:33;;;;;;;3.88;1.50;;;;;;;41.47;13.50;102049.06;5091625;28;20016;-74
2022/06/15 08:36:58;;;;;;;4.78;2.17;;;;;;;39.88;15.47;102051.72;5085492;28;20016;-75
2022/06/15 08:39:23;;;;;;;4.15;1.38;;;;;;;41.51;15.50;102048.47;5086994;28;20076;-74
2022/06/15 08:42:04;;;;;;;6.32;1.58;;;;;;;40.01;14.81;102058.28;5088326;28;20428;-73
2022/06/15 08:44:38;;;;;;;7.65;1.73;;;;;;;40.23;15.05;102055.78;5091324;28;20051;-74
2022/06/15 08:47:35;;;;;;;4.00;1.52;;;;;;;40.14;14.30;102049.50;5088075;28;20024;-74
2022/06/15 08:50:41;;;;;;;8.88;1.92;;;;;;;39.70;14.79;102044.63;5103447;28;20458;-74
2022/06/15 08:53:23;;;;;;;5.35;1.50;;;;;;;40.36;14.15;102045.03;5106950;28;20024;-73
2022/06/15 08:56:08;;;;;;;8.57;1.55;;;;;;;41.66;14.34;102045.69;5106494;28;20028;-75
2022/06/15 08:58:45;;;;;;;5.22;1.90;;;;;;;41.03;13.98;102046.13;5088710;28;20027;-75
2022/06/15 09:01:30;;;;;;;3.15;1.52;;;;;;;40.22;15.74;102045.84;5089898;28;20129;-74
2022/06/15 09:04:20;;;;;;;5.43;1.30;;;;;;;39.92;14.95;102042.13;5088739;28;20048;-74
2022/06/15 09:07:18;;;;;;;3.67;2.05;;;;;;;41.26;15.08;102039.69;5087264;28;20475;-74
2022/06/15 09:10:06;;;;;;;6.35;1.83;;;;;;;38.90;15.59;102043.72;5068893;28;20032;-74
2022/06/15 09:13:09;;;;;;;5.38;1.70;;;;;;;38.25;16.03;102034.53;5091004;28;20472;-73
2022/06/15 09:16:19;;;;;;;5.15;1.73;;;;;;;38.90;16.47;102035.53;5086439;28;20047;-74
2022/06/15 09:18:54;;;;;;;4.65;1.38;;;;;;;38.01;15.77;102044.34;5051516;28;20032;-74
2022/06/15 09:21:32;;;;;;;5.10;1.55;;;;;;;37.49;16.22;102044.53;5086142;28;20108;-74
2022/06/15 09:24:01;;;;;;;4.40;1.70;;;;;;;37.33;15.95;102040.75;5088222;28;20027;-73
2022/06/15 09:26:37;;;;;;;3.55;1.50;;;;;;;37.35;17.54;102033.25;5089520;28;20028;-75
2022/06/15 09:29:20;;;;;;;4.47;1.58;;;;;;;38.50;16.14;102040.00;5089305;28;20032;-75
2022/06/15 09:32:06;;;;;;;6.97;1.60;;;;;;;40.19;15.88;102032.53;5088451;28;20464;-74
2022/06/15 09:34:39;;;;;;;3.10;1.42;;;;;;;37.97;16.02;102034.81;5088789;28;20027;-74
2022/06/15 09:37:12;;;;;;;2.78;1.40;;;;;;;40.68;15.67;102026.63;5088971;28;20035;-74
2022/06/15 09:39:37;;;;;;;4.88;1.20;;;;;;;41.16;15.04;102022.69;5091054;28;20030;-74
2022/06/15 09:42:09;;;;;;;4.10;1.40;;;;;;;40.95;14.81;102027.03;5093130;28;20027;-75
2022/06/15 09:44:56;;;;;;;3.83;1.38;;;;;;;39.27;14.48;102023.13;5092319;28;20032;-74
2022/06/15 09:47:32;;;;;;;3.58;1.55;;;;;;;41.13;14.90;102023.06;5093446;28;20026;-74
2022/06/15 09:50:16;;;;;;;3.85;1.65;;;;;;;41.35;14.47;102027.56;5092858;28;20039;-74
2022/06/15 09:53:15;;;;;;;7.55;1.65;;;;;;;39.33;15.26;102021.56;5091185;28;20024;-74
2022/06/15 09:56:03;;;;;;;2.92;1.30;;;;;;;38.35;16.40;102027.03;5091479;28;20032;-74
2022/06/15 09:58:33;;;;;;;4.05;1.85;;;;;;;39.24;15.88;102031.69;5094329;28;20028;-74
2022/06/15 10:00:58;;;;;;;6.22;1.73;;;;;;;40.40;16.28;102033.72;5091363;28;20273;-74
2022/06/15 10:03:31;;;;;;;3.20;1.30;;;;;;;41.26;14.57;102028.72;5091966;28;20032;-75
2022/06/15 10:06:04;;;;;;;2.75;1.27;;;;;;;39.46;15.20;102031.91;5093767;28;20489;-74
2022/06/15 10:08:29;;;;;;;3.45;1.60;;;;;;;39.23;15.35;102038.19;5093037;28;20035;-74
2022/06/15 10:10:57;;;;;;;4.13;2.08;;;;;;;39.77;13.79;102033.84;5092493;28;20023;-74
2022/06/15 10:13:33;;;;;;;3.60;1.52;;;;;;;38.09;15.21;102037.22;5091243;28;20016;-73
2022/06/15 10:16:05;;;;;;;3.28;1.60;;;;;;;38.72;14.65;102029.41;5093738;28;20040;-73
2022/06/15 10:18:36;;;;;;;4.22;1.88;;;;;;;39.91;13.66;102029.47;5091526;28;20476;-73
2022/06/15 10:21:13;;;;;;;5.90;1.45;;;;;;;40.99;14.01;102028.38;5093357;28;20103;-74
2022/06/15 10:24:07;;;;;;;4.45;1.65;;;;;;;39.19;14.57;102023.16;5090356;28;20038;-73
2022/06/15 10:26:37;;;;;;;2.72;1.30;;;;;;;38.68;16.81;102018.78;5089313;28;20082;-74
2022/06/15 10:29:26;;;;;;;3.92;1.27;;;;;;;38.34;15.80;102033.50;5094365;28;20073;-74
2022/06/15 10:32:03;;;;;;;5.47;1.55;;;;;;;38.76;15.86;102026.16;5092153;28;20052;-74
2022/06/15 10:34:33;;;;;;;4.85;1.80;;;;;;;39.15;14.93;102027.28;5108915;28;20030;-73
2022/06/15 10:37:04;;;;;;;4.97;1.38;;;;;;;39.93;15.91;102033.72;5108469;28;20073;-74
2022/06/15 10:39:33;;;;;;;3.75;1.35;;;;;;;39.44;14.50;102031.25;5091154;28;20089;-74
2022/06/15 10:42:07;;;;;;;4.88;1.60;;;;;;;36.82;16.48;102034.28;5091149;28;20055;-72
2022/06/15 10:44:37;;;;;;;3.47;1.73;;;;;;;38.07;15.92;102028.34;5092109;28;20028;-72
2022/06/15 10:47:18;;;;;;;5.15;1.98;;;;;;;38.78;15.18;102023.25;5091831;28;20089;-74
2022/06/15 10:49:47;;;;;;;1.88;1.30;;;;;;;38.60;16.38;102015.25;5089141;28;20051;-73
2022/06/15 10:52:21;;;;;;;3.97;1.52;;;;;;;38.34;16.35;102022.56;5090404;28;20024;-74
2022/06/15 11:03:18;;;;;;;3.22;1.50;;;;;;;40.37;14.79;102024.84;5090867;28;20573;-74
2022/06/15 11:05:47;;;;;;;4.55;1.98;;;;;;;41.26;14.42;102015.03;5092515;28;20564;-74
2022/06/15 11:08:26;;;;;;;3.55;1.35;;;;;;;39.48;15.59;102018.94;5067586;28;20020;-74
2022/06/15 11:11:10;;;;;;;5.07;1.83;;;;;;;39.79;15.67;102016.22;5085720;28;20101;-74
2022/06/15 11:13:50;;;;;;;5.13;1.42;;;;;;;39.31;16.46;102018.13;5090401;28;20020;-74
2022/06/15 11:19:11;;;;;;;5.65;1.80;;;;;;;38.13;17.54;102019.50;5091805;28;20124;-74
2022/06/15 11:21:47;;;;;;;3.70;1.48;;;;;;;40.33;14.57;102026.25;5091334;28;20495;-73
2022/06/15 11:24:21;;;;;;;2.72;1.55;;;;;;;40.22;14.01;102020.34;5088856;28;20031;-74
2022/06/15 11:27:03;;;;;;;7.85;1.58;;;;;;;40.85;14.53;102010.00;5085686;28;20173;-75
2022/06/15 11:29:43;;;;;;;;;;;;;;;39.10;15.08;101999.59;5087251;28;20023;-73
2022/06/15 11:32:30;;;;;;;3.80;1.40;;;;;;;39.01;15.57;101990.56;5082343;28;19916;-74
2022/06/15 11:35:13;;;;;;;4.20;1.90;;;;;;;38.94;16.35;101992.28;5086630;28;20085;-73
2022/06/15 11:37:48;;;;;;;7.00;1.42;;;;;;;37.67;17.07;101998.94;5090520;28;20051;-74
2022/06/15 11:40:21;;;;;;;3.58;2.00;;;;;;;35.25;18.00;101988.31;5087590;28;20036;-75
2022/06/15 11:42:53;;;;;;;4.40;1.40;;;;;;;35.17;19.41;101991.78;5084882;28;20024;-74
2022/06/15 11:45:22;;;;;;;2.95;1.20;;;;;;;35.82;18.09;101997.19;5089488;28;20032;-74
2022/06/15 11:48:06;;;;;;;3.67;1.50;;;;;;;36.83;18.24;101992.44;5090793;28;20400;-74
2022/06/15 11:50:58;;;;;;;6.18;1.60;;;;;;;35.61;18.63;101991.13;5095892;28;20020;-74
2022/06/15 11:53:35;;;;;;;5.07;1.42;;;;;;;37.13;17.77;101984.75;5088942;28;20073;-74
2022/06/15 11:56:08;;;;;;;4.10;1.40;;;;;;;37.87;16.95;101982.28;5090454;28;20024;-74
2022/06/15 11:58:58;;;;;;;6.10;1.70;;;;;;;36.75;17.54;101981.47;5088835;28;20047;-74